Atmospheric History
02/08/2018 18:14  to  2/9/2018 18:14
Change End Date:
To complete the export process:
1) Select all of the data below
2) Copy the data to the clipboard
3) Open a word processor such as Notepad
4) Paste the data into the word processor
5) Save the file

Date/Time (MST), AirTemp, RH, Dewpoint ,AvgWindSpeed, GustWindSpeed, WindDirection, PrecipType, PrecipIntensity, PrecipAccumulation, PrecipRate
02/09/2018 18:10, -9, 76, -15 ,9, 9, S, None, None, ,  
02/09/2018 18:00, -9, 76, -14 ,8, 9, S, None, None, ,  
02/09/2018 17:50, -9, 75, -14 ,9, 9, SW, None, None, ,  
02/09/2018 17:48, -9, 75, -14 ,7, 9, S, None, None, ,  
02/09/2018 17:40, -7, 74, -14 ,8, 9, S, None, None, ,  
02/09/2018 17:33, -6, 73, -13 ,7, 7, S, None, None, ,  
02/09/2018 17:30, -6, 73, -12 ,7, 7, S, None, None, ,  
02/09/2018 17:20, -5, 72, -12 ,6, 6, SW, None, None, ,  
02/09/2018 17:18, -5, 71, -12 ,6, 6, SW, None, None, ,  
02/09/2018 17:10, -4, 70, -11 ,4, 6, SW, None, None, ,  
02/09/2018 17:03, -4, 69, -12 ,4, 6, SW, None, None, ,  
02/09/2018 16:59, -4, 68, -12 ,6, 6, SW, None, None, ,  
02/09/2018 16:49, -3, 67, -11 ,4, 6, S, None, None, ,  
02/09/2018 16:48, -3, 67, -11 ,4, 6, S, None, None, ,  
02/09/2018 16:39, -3, 67, -11 ,6, 6, S, None, None, ,  
02/09/2018 16:33, -3, 67, -11 ,6, 6, S, None, None, ,  
02/09/2018 16:29, -3, 67, -11 ,4, 6, S, None, None, ,  
02/09/2018 16:19, -3, 67, -11 ,5, 7, S, None, None, ,  
02/09/2018 16:18, -3, 67, -11 ,6, 7, S, None, None, ,  
02/09/2018 16:09, -3, 68, -11 ,6, 7, S, None, None, ,  
02/09/2018 16:03, -3, 68, -11 ,6, 6, S, None, None, ,  
02/09/2018 15:59, -3, 67, -11 ,6, 6, S, None, None, ,  
02/09/2018 15:49, -2, 66, -10 ,6, 6, S, None, None, ,  
02/09/2018 15:48, -2, 66, -10 ,5, 6, S, None, None, ,  
02/09/2018 15:39, -1, 66, -10 ,4, 4, S, None, None, ,  
02/09/2018 15:33, -1, 66, -10 ,4, 5, S, None, None, ,  
02/09/2018 15:29, -1, 66, -10 ,4, 5, S, None, None, ,  
02/09/2018 15:19, 0, 65, -9 ,2, 4, S, None, None, ,  
02/09/2018 15:18, 0, 65, -9 ,2, 4, S, None, None, ,  
02/09/2018 15:09, 1, 65, -8 ,3, 4, S, None, None, ,  
02/09/2018 15:03, 1, 65, -8 ,2, 4, S, None, None, ,  
02/09/2018 14:59, 1, 65, -8 ,2, 4, S, None, None, ,  
02/09/2018 14:49, 0, 66, -9 ,4, 6, S, None, None, ,  
02/09/2018 14:48, -1, 66, -9 ,4, 6, S, None, None, ,  
02/09/2018 14:39, 0, 66, -9 ,6, 6, S, None, None, ,  
02/09/2018 14:33, 0, 66, -9 ,6, 6, S, None, None, ,  
02/09/2018 14:29, 0, 66, -9 ,6, 6, S, None, None, ,  
02/09/2018 14:18, 1, 66, -8 ,6, 6, S, None, None, ,  
02/09/2018 14:18, 1, 66, -8 ,5, 6, S, None, None, ,  
02/09/2018 14:08, 1, 66, -8 ,4, 7, S, None, None, ,  
02/09/2018 14:03, 0, 66, -9 ,6, 7, S, None, None, ,  
02/09/2018 13:58, 0, 66, -9 ,6, 7, S, None, None, ,  
02/09/2018 13:48, 0, 64, -9 ,6, 7, S, None, None, ,  
02/09/2018 13:48, 0, 64, -9 ,6, 7, S, None, None, ,  
02/09/2018 13:38, 1, 62, -9 ,6, 7, S, None, None, ,  
02/09/2018 13:33, 1, 60, -9 ,6, 7, S, None, None, ,  
02/09/2018 13:28, 3, 60, -8 ,6, 6, S, None, None, ,  
02/09/2018 13:18, 2, 61, -8 ,3, 5, S, None, None, ,  
02/09/2018 13:18, 2, 61, -8 ,4, 5, S, None, None, ,  
02/09/2018 13:08, 2, 60, -8 ,4, 6, S, None, None, ,  
02/09/2018 13:03, 2, 59, -9 ,4, 6, S, None, None, ,  
02/09/2018 12:58, 3, 58, -8 ,4, 6, SW, None, None, ,  
02/09/2018 12:48, 6, 56, -7 ,4, 4, SW, None, None, ,  
02/09/2018 12:48, 6, 57, -6 ,4, 4, SW, None, None, ,  
02/09/2018 12:38, 4, 57, -8 ,3, 3, SW, None, None, ,  
02/09/2018 12:33, 5, 58, -6 ,2, 2, SW, None, None, ,  
02/09/2018 12:28, 4, 60, -7 ,1, 2, W, None, None, ,  
02/09/2018 12:18, 2, 61, -8 ,1, 2, W, None, None, ,  
02/09/2018 12:18, 2, 61, -8 ,1, 2, W, None, None, ,  
02/09/2018 12:08, 3, 64, -6 ,2, 4, SW, None, None, ,  
02/09/2018 12:03, 1, 65, -7 ,4, 5, SW, None, None, ,  
02/09/2018 11:58, 1, 66, -8 ,4, 6, SW, None, None, ,  
02/09/2018 11:48, -3, 68, -10 ,5, 7, SW, None, None, ,  
02/09/2018 11:48, -3, 68, -10 ,5, 7, S, None, None, ,  
02/09/2018 11:38, -3, 68, -11 ,7, 7, SW, None, None, ,  
02/09/2018 11:33, -4, 68, -12 ,7, 7, SW, None, None, ,  
02/09/2018 11:27, -4, 67, -12 ,7, 7, S, None, None, ,  
02/09/2018 11:18, -4, 65, -12 ,6, 7, S, None, None, ,  
02/09/2018 11:17, -4, 65, -12 ,6, 7, S, None, None, ,  
02/09/2018 11:07, 1, 62, -9 ,2, 4, S, None, None, ,  
02/09/2018 11:03, 3, 64, -6 ,2, 2, S, None, None, ,  
02/09/2018 10:57, 2, 66, -6 ,0, 2, SW, None, None, ,  
02/09/2018 10:48, 0, 67, -8 ,0, 1, SW, None, None, ,  
02/09/2018 10:47, 0, 67, -8 ,1, 1, SW, None, None, ,  
02/09/2018 10:37, 0, 69, -8 ,0, 1, SW, None, None, ,  
02/09/2018 10:33, 1, 70, -7 ,1, 1, SW, None, None, ,  
02/09/2018 10:27, 1, 72, -6 ,0, 1, SW, None, None, ,  
02/09/2018 10:18, -1, 75, -7 ,0, 1, SW, None, None, ,  
02/09/2018 10:17, -1, 75, -7 ,0, 1, NW, None, None, ,  
02/09/2018 10:07, -3, 76, -8 ,0, 0, NW, None, None, ,  
02/09/2018 10:03, -3, 77, -9 ,0, 0, NW, None, None, ,  
02/09/2018 09:57, -3, 78, -8 ,0, 1, NW, None, None, ,  
02/09/2018 09:48, -4, 79, -8 ,0, 1, NW, None, None, ,  
02/09/2018 09:47, -4, 80, -8 ,0, 1, W, None, None, ,  
02/09/2018 09:37, -6, 80, -11 ,2, 4, W, None, None, ,  
02/09/2018 09:33, -7, 80, -11 ,3, 5, W, None, None, ,  
02/09/2018 09:27, -8, 80, -12 ,4, 6, SW, None, None, ,  
02/09/2018 09:18, -8, 81, -12 ,7, 8, SW, None, None, ,  
02/09/2018 09:17, -8, 81, -12 ,7, 8, SW, None, None, ,  
02/09/2018 09:07, -7, 81, -11 ,6, 7, S, None, None, ,  
02/09/2018 09:03, -7, 81, -11 ,6, 6, S, None, None, ,  
02/09/2018 08:57, -8, 81, -12 ,6, 6, S, None, None, ,  
02/09/2018 08:48, -8, 81, -12 ,6, 6, S, None, None, ,  
02/09/2018 08:47, -8, 81, -12 ,4, 6, S, None, None, ,  
02/09/2018 08:37, -7, 81, -11 ,4, 6, S, None, None, ,  
02/09/2018 08:33, -7, 81, -11 ,5, 6, S, None, None, ,  
02/09/2018 08:27, -9, 81, -13 ,4, 4, S, None, None, ,  
02/09/2018 08:18, -10, 81, -14 ,3, 4, SW, None, None, ,  
02/09/2018 08:16, -10, 81, -14 ,3, 3, SW, None, None, ,  
02/09/2018 08:06, -10, 81, -14 ,3, 3, SW, None, None, ,  
02/09/2018 08:03, -10, 81, -14 ,3, 3, SW, None, None, ,  
02/09/2018 07:56, -11, 81, -15 ,2, 4, SW, None, None, ,  
02/09/2018 07:48, -12, 81, -16 ,4, 4, W, None, None, ,  
02/09/2018 07:46, -12, 81, -16 ,4, 4, W, None, None, ,  
02/09/2018 07:36, -10, 81, -14 ,3, 4, W, None, None, ,  
02/09/2018 07:33, -9, 82, -13 ,3, 4, SW, None, None, ,  
02/09/2018 07:26, -7, 82, -11 ,3, 4, W, None, None, ,  
02/09/2018 07:18, -6, 82, -10 ,2, 4, W, None, None, ,  
02/09/2018 07:16, -7, 82, -11 ,3, 4, NW, None, None, ,  
02/09/2018 07:06, -7, 82, -11 ,2, 3, NW, None, None, ,  
02/09/2018 07:03, -7, 82, -11 ,2, 3, NW, None, None, ,  
02/09/2018 06:56, -7, 82, -11 ,2, 5, NW, None, None, ,  
02/09/2018 06:48, -6, 82, -10 ,4, 6, NW, None, None, ,  
02/09/2018 06:46, -6, 82, -10 ,4, 6, NW, None, None, ,  
02/09/2018 06:36, -5, 82, -9 ,4, 6, NW, None, None, ,  
02/09/2018 06:33, -4, 82, -8 ,4, 7, NW, None, None, ,  
02/09/2018 06:26, -4, 82, -8 ,5, 7, NW, None, None, ,  
02/09/2018 06:18, -4, 82, -8 ,6, 7, NW, None, None, ,  
02/09/2018 06:16, -4, 82, -8 ,6, 7, NW, None, None, ,  
02/09/2018 06:06, -3, 82, -7 ,5, 7, NW, Yes, , ,  
02/09/2018 06:03, -3, 82, -7 ,6, 7, NW, None, None, ,  
02/09/2018 05:56, -3, 82, -7 ,6, 8, NW, Yes, , ,  
02/09/2018 05:48, -3, 81, -7 ,7, 9, NW, Yes, , ,  
02/09/2018 05:46, -3, 81, -7 ,6, 9, NW, Yes, , ,  
02/09/2018 05:36, -3, 81, -7 ,6, 9, NW, Yes, , ,  
02/09/2018 05:33, -3, 81, -7 ,7, 9, NW, Yes, , ,  
02/09/2018 05:26, -3, 81, -7 ,7, 9, NW, None, None, ,  
02/09/2018 05:18, -3, 81, -7 ,7, 9, NW, None, None, ,  
02/09/2018 05:15, -3, 81, -7 ,7, 9, NW, Yes, , ,  
02/09/2018 05:05, -3, 81, -7 ,6, 8, NW, None, None, ,  
02/09/2018 05:03, -3, 81, -7 ,6, 8, NW, Yes, , ,  
02/09/2018 04:55, -3, 81, -7 ,6, 7, NW, None, None, ,  
02/09/2018 04:48, -3, 81, -7 ,6, 9, NW, None, None, ,  
02/09/2018 04:45, -3, 81, -7 ,6, 10, NW, None, None, ,  
02/09/2018 04:35, -3, 81, -7 ,7, 11, NW, None, None, ,  
02/09/2018 04:33, -3, 81, -7 ,7, 11, NW, None, None, ,  
02/09/2018 04:25, -3, 81, -7 ,9, 11, NW, None, None, ,  
02/09/2018 04:18, -3, 81, -7 ,9, 11, NW, None, None, ,  
02/09/2018 04:15, -3, 81, -7 ,9, 11, NW, None, None, ,  
02/09/2018 04:05, -3, 82, -7 ,6, 9, NW, Yes, , ,  
02/09/2018 04:03, -3, 82, -7 ,6, 9, NW, None, None, ,  
02/09/2018 03:55, -3, 82, -7 ,7, 9, NW, None, None, ,  
02/09/2018 03:48, -3, 82, -7 ,4, 9, NW, Yes, , ,  
02/09/2018 03:45, -3, 82, -7 ,5, 9, NW, Yes, , ,  
02/09/2018 03:35, -3, 82, -7 ,7, 10, NW, None, None, ,  
02/09/2018 03:33, -3, 82, -7 ,7, 10, NW, None, None, ,  
02/09/2018 03:25, -3, 82, -7 ,8, 10, NW, Yes, , ,  
02/09/2018 03:18, -2, 82, -7 ,7, 9, NW, Yes, , ,  
02/09/2018 03:15, -2, 82, -7 ,7, 9, NW, Yes, , ,  
02/09/2018 03:05, -2, 82, -6 ,9, 11, NW, Yes, , ,  
02/09/2018 03:03, -2, 82, -6 ,9, 11, NW, Yes, , ,  
02/09/2018 02:55, -2, 82, -6 ,9, 11, NW, Yes, , ,  
02/09/2018 02:48, -2, 82, -6 ,7, 9, NW, Yes, , ,  
02/09/2018 02:45, -2, 82, -6 ,7, 9, NW, Yes, , ,  
02/09/2018 02:35, -2, 82, -6 ,7, 9, NW, Yes, , ,  
02/09/2018 02:33, -2, 82, -6 ,6, 9, NW, Yes, , ,  
02/09/2018 02:25, -2, 82, -6 ,7, 11, NW, Yes, , ,  
02/09/2018 02:18, -2, 82, -6 ,9, 11, NW, Yes, , ,  
02/09/2018 02:14, -2, 82, -6 ,9, 11, NW, Yes, , ,  
02/09/2018 02:04, -2, 82, -6 ,9, 12, NW, Yes, , ,  
02/09/2018 02:03, -2, 82, -6 ,10, 12, NW, Yes, , ,  
02/09/2018 01:54, -2, 82, -6 ,10, 12, NW, Yes, , ,  
02/09/2018 01:48, -2, 82, -6 ,9, 12, NW, Yes, , ,  
02/09/2018 01:44, -2, 82, -6 ,9, 12, NW, Yes, , ,  
02/09/2018 01:34, -2, 82, -6 ,11, 12, NW, Yes, , ,  
02/09/2018 01:33, -2, 82, -6 ,11, 12, NW, Yes, , ,  
02/09/2018 01:24, -2, 82, -6 ,9, 11, N, Yes, , ,  
02/09/2018 01:18, -2, 82, -6 ,9, 11, NW, Yes, , ,  
02/09/2018 01:14, -1, 82, -6 ,9, 11, N, Yes, , ,  
02/09/2018 01:04, -1, 82, -6 ,10, 11, NW, None, None, ,  
02/09/2018 01:03, -2, 82, -6 ,10, 12, NW, Yes, , ,  
02/09/2018 00:54, -1, 82, -5 ,11, 14, NW, Yes, , ,  
02/09/2018 00:48, -1, 82, -5 ,11, 14, NW, None, None, ,  
02/09/2018 00:44, -1, 82, -5 ,12, 13, NW, None, None, ,  
02/09/2018 00:34, -1, 82, -5 ,11, 12, NW, Yes, , ,  
02/09/2018 00:33, -1, 82, -5 ,11, 12, NW, Yes, , ,  
02/09/2018 00:24, -1, 82, -5 ,9, 11, NW, Yes, , ,  
02/09/2018 00:18, -1, 82, -5 ,8, 11, NW, Yes, , ,  
02/09/2018 00:14, -1, 82, -5 ,7, 11, NW, Yes, , ,  
02/09/2018 00:04, -1, 82, -5 ,7, 9, NW, Yes, , ,  
02/09/2018 00:03, -1, 82, -5 ,7, 9, NW, Yes, , ,  
02/08/2018 23:54, -1, 82, -5 ,6, 7, NW, Yes, , ,  
02/08/2018 23:48, -1, 82, -5 ,6, 6, NW, None, None, ,  
02/08/2018 23:44, -1, 82, -5 ,6, 7, NW, None, None, ,  
02/08/2018 23:34, -1, 82, -5 ,7, 9, NW, Yes, , ,  
02/08/2018 23:33, -1, 82, -5 ,7, 9, NW, Yes, , ,  
02/08/2018 23:24, -1, 82, -5 ,7, 7, W, Yes, , ,  
02/08/2018 23:18, -1, 82, -5 ,6, 7, W, Yes, , ,  
02/08/2018 23:13, -1, 82, -5 ,6, 7, W, None, None, ,  
02/08/2018 23:03, 0, 82, -5 ,6, 9, NW, Yes, , ,  
02/08/2018 23:03, 0, 82, -5 ,6, 9, NW, Yes, , ,  
02/08/2018 22:53, 0, 82, -5 ,8, 11, NW, Yes, , ,  
02/08/2018 22:48, 0, 82, -5 ,10, 11, NW, None, None, ,  
02/08/2018 22:43, 0, 82, -4 ,8, 10, NW, None, None, ,  
02/08/2018 22:33, 0, 82, -4 ,8, 11, NW, Yes, , ,  
02/08/2018 22:33, 0, 82, -4 ,8, 11, NW, Yes, , ,  
02/08/2018 22:23, 0, 82, -4 ,9, 14, NW, Yes, , ,  
02/08/2018 22:18, 0, 82, -4 ,11, 14, NW, Yes, , ,  
02/08/2018 22:13, 1, 82, -3 ,11, 12, NW, None, None, ,  
02/08/2018 22:03, 1, 83, -3 ,9, 12, NW, Yes, , ,  
02/08/2018 22:03, 1, 83, -3 ,9, 12, NW, Yes, , ,  
02/08/2018 21:53, 1, 83, -3 ,9, 13, NW, Yes, , ,  
02/08/2018 21:48, 1, 83, -3 ,9, 12, NW, Yes, , ,  
02/08/2018 21:43, 1, 82, -3 ,9, 12, NW, Yes, , ,  
02/08/2018 21:33, 1, 82, -3 ,9, 12, NW, Yes, , ,  
02/08/2018 21:33, 1, 82, -3 ,9, 12, NW, Yes, , ,  
02/08/2018 21:23, 1, 82, -3 ,11, 13, NW, Yes, , ,  
02/08/2018 21:18, 1, 82, -3 ,10, 13, NW, Yes, , ,  
02/08/2018 21:13, 1, 82, -3 ,11, 13, NW, Yes, , ,  
02/08/2018 21:03, 1, 82, -3 ,11, 12, NW, Yes, , ,  
02/08/2018 21:03, 1, 82, -3 ,11, 12, NW, Yes, , ,  
02/08/2018 20:53, 1, 82, -3 ,11, 13, NW, Yes, , ,  
02/08/2018 20:48, 1, 82, -3 ,11, 13, NW, Yes, , ,  
02/08/2018 20:43, 1, 82, -3 ,9, 17, NW, Yes, , ,  
02/08/2018 20:33, 2, 82, -2 ,14, 16, NW, Yes, , ,  
02/08/2018 20:32, 2, 82, -2 ,14, 16, NW, Yes, , ,  
02/08/2018 20:22, 2, 82, -2 ,12, 17, NW, Yes, , ,  
02/08/2018 20:18, 2, 82, -2 ,13, 17, NW, Yes, , ,  
02/08/2018 20:12, 2, 82, -2 ,13, 16, NW, Yes, , ,  
02/08/2018 20:03, 2, 82, -2 ,11, 16, NW, Yes, , ,  
02/08/2018 20:02, 2, 82, -2 ,11, 16, NW, Yes, , ,  
02/08/2018 19:52, 2, 83, -2 ,13, 17, NW, Yes, , ,  
02/08/2018 19:48, 2, 83, -2 ,12, 17, NW, Yes, , ,  
02/08/2018 19:42, 2, 83, -2 ,13, 17, NW, Yes, , ,  
02/08/2018 19:33, 2, 82, -2 ,15, 17, NW, None, None, ,  
02/08/2018 19:32, 2, 82, -2 ,15, 17, NW, None, None, ,  
02/08/2018 19:22, 2, 83, -1 ,14, 17, NW, None, None, ,  
02/08/2018 19:18, 3, 83, -1 ,11, 16, NW, Yes, , ,  
02/08/2018 19:12, 3, 83, -1 ,12, 19, NW, None, None, ,  
02/08/2018 19:03, 3, 82, -1 ,16, 21, NW, Yes, , ,  
02/08/2018 19:02, 3, 82, -1 ,14, 21, NW, Yes, , ,  
02/08/2018 18:52, 3, 80, -1 ,9, 17, N, Yes, , ,  
02/08/2018 18:48, 4, 80, -1 ,11, 17, N, None, None, ,  
02/08/2018 18:42, 4, 81, -1 ,13, 16, NW, None, None, ,  
02/08/2018 18:33, 4, 81, 0 ,13, 19, NW, None, None, ,  
02/08/2018 18:32, 4, 81, 0 ,15, 19, NW, None, None, ,  
02/08/2018 18:22, 4, 81, 0 ,14, 19, NW, None, None, ,  
02/08/2018 18:18, 5, 81, 0 ,14, 17, NW, None, None, ,  
Change End Date:

Copyright © 1998-2015 Vaisala, Inc.
All Rights Reserved
Send comments about the data to:
SCAN Web ® is a registered trademark of Vaisala, Inc.
SCAN Web Version 6.0